Terminal Aerodrome Forecast
Issued by NWS Knoxville/Tri Cities, TN

Home | Current Version | Previous Version | Text Only | Print | Product List | Glossary On
Versions: 1 2 3 4 5 6 7 8 9 10 11 12 13 14 15 16
000
FTUS44 KMRX 272021 AAA
TAFTRI
TAF AMD
KTRI 272021Z 2720/2818 25008KT P6SM VCTS SCT050CB BKN080
      TEMPO 2721/2722 31015G25KT 2SM +TSRA BKN025CB
     FM280100 00000KT P6SM SCT050 BKN100
     FM281300 23006KT 4SM -SHRA SCT010 BKN040=

USA.gov is the U.S. government's official web portal to all federal, state and local government web resources and services.